Terminal Aerodrome Forecast
Issued by NWS

Current Version | Previous Version | Graphics & Text | Print | Product List | Glossary On
Versions: 1 2 3 4 5 6 7 8 9 10 11 12 13 14 15 16 17
000
FTUS41 KPBZ 192329
TAFHLG
TAF
KHLG 192329Z 2000/2024 29008KT P6SM FEW045
     FM200800 00000KT 5SM BR SCT050
     FM201300 22003KT P6SM SCT050=

USA.gov is the U.S. government's official web portal to all federal, state and local government web resources and services.